createdAt,value
2017-09-15T00:00:31.795Z,99.99
2017-09-15T00:01:31.792Z,99.99
2017-09-15T00:02:31.789Z,99.99
2017-09-15T00:03:31.783Z,99.99
2017-09-15T00:04:31.785Z,99.99
2017-09-15T00:05:31.782Z,99.99
2017-09-15T00:06:31.779Z,99.99
2017-09-15T00:07:31.774Z,99.99
2017-09-15T00:08:31.772Z,99.99
2017-09-15T00:09:31.768Z,99.99
2017-09-15T00:10:31.765Z,99.99
2017-09-15T00:11:31.760Z,99.99
2017-09-15T00:12:31.753Z,99.99
2017-09-15T00:13:31.750Z,99.99
2017-09-15T00:14:31.746Z,99.99
2017-09-15T00:15:31.742Z,99.99
2017-09-15T00:16:31.740Z,99.99
2017-09-15T00:17:31.736Z,99.99
2017-09-15T00:18:31.733Z,99.99
2017-09-15T00:19:31.728Z,99.99
2017-09-15T00:20:31.728Z,99.99
2017-09-15T00:21:31.725Z,99.99
2017-09-15T00:22:31.723Z,99.99
2017-09-15T00:23:31.719Z,99.99
2017-09-15T00:24:31.716Z,99.99
2017-09-15T00:25:31.712Z,99.99
2017-09-15T00:26:31.708Z,99.99
2017-09-15T00:27:31.704Z,99.99
2017-09-15T00:28:31.697Z,99.99
2017-09-15T00:29:31.694Z,99.99
2017-09-15T00:30:31.690Z,99.99
2017-09-15T00:31:31.686Z,99.99
2017-09-15T00:32:31.684Z,99.99
2017-09-15T00:33:31.678Z,99.99
2017-09-15T00:34:31.677Z,99.99
2017-09-15T00:35:31.674Z,99.99
2017-09-15T00:36:31.672Z,99.99
2017-09-15T00:37:31.669Z,99.99
2017-09-15T00:38:31.666Z,99.99
2017-09-15T00:39:31.660Z,99.99
2017-09-15T00:40:31.657Z,99.99
2017-09-15T00:41:31.656Z,99.99
2017-09-15T00:42:31.650Z,99.99
2017-09-15T00:43:31.646Z,99.99
2017-09-15T00:44:31.639Z,99.99
2017-09-15T00:45:31.634Z,99.99
2017-09-15T00:46:31.631Z,99.99
2017-09-15T00:47:31.628Z,99.99
2017-09-15T00:48:31.628Z,99.99
2017-09-15T00:49:31.627Z,99.99
2017-09-15T00:50:31.621Z,99.99
2017-09-15T00:51:31.617Z,99.99
2017-09-15T00:52:31.608Z,99.99
2017-09-15T00:53:31.604Z,99.99
2017-09-15T00:54:31.607Z,99.99
2017-09-15T00:55:31.596Z,99.99
2017-09-15T00:56:31.592Z,99.99
2017-09-15T00:57:31.591Z,99.99
2017-09-15T00:58:31.585Z,99.99
2017-09-15T00:59:31.581Z,99.99
2017-09-15T01:00:31.581Z,99.99
2017-09-15T01:01:31.578Z,99.99
2017-09-15T01:02:31.574Z,99.99
2017-09-15T01:03:31.569Z,99.99
2017-09-15T01:04:31.566Z,99.99
2017-09-15T01:05:31.563Z,99.99
2017-09-15T01:06:31.559Z,99.99
2017-09-15T01:07:31.555Z,99.99
2017-09-15T01:08:31.546Z,99.99
2017-09-15T01:09:31.544Z,99.99
2017-09-15T01:10:31.539Z,99.99
2017-09-15T01:11:31.537Z,99.99
2017-09-15T01:12:31.532Z,99.99
2017-09-15T01:13:31.529Z,99.99
2017-09-15T01:14:31.525Z,99.99
2017-09-15T01:15:31.519Z,99.99
2017-09-15T01:16:31.519Z,99.99
2017-09-15T01:17:31.517Z,99.99
2017-09-15T01:18:31.513Z,99.99
2017-09-15T01:19:31.510Z,99.99
2017-09-15T01:20:31.506Z,99.99
2017-09-15T01:21:31.502Z,99.99
2017-09-15T01:22:31.499Z,99.99
2017-09-15T01:23:31.493Z,99.99
2017-09-15T01:24:31.485Z,99.99
2017-09-15T01:25:31.482Z,99.99
2017-09-15T01:26:31.478Z,99.99
2017-09-15T01:27:31.475Z,99.99
2017-09-15T01:28:31.472Z,99.99
2017-09-15T01:29:31.471Z,99.99
2017-09-15T01:30:31.463Z,99.99
2017-09-15T01:31:31.458Z,99.99
2017-09-15T01:32:31.458Z,99.99
2017-09-15T01:33:31.457Z,99.99
2017-09-15T01:34:31.451Z,99.99
2017-09-15T01:35:31.447Z,99.99
2017-09-15T01:36:31.442Z,99.99
2017-09-15T01:37:31.440Z,99.99
2017-09-15T01:38:31.435Z,99.99
2017-09-15T01:39:31.434Z,99.99
2017-09-15T01:40:31.428Z,99.99
2017-09-15T01:41:31.419Z,99.99
2017-09-15T01:42:31.416Z,99.99
2017-09-15T01:43:31.410Z,99.99
2017-09-15T01:44:31.406Z,99.99
2017-09-15T01:45:31.403Z,99.99
2017-09-15T01:46:31.403Z,99.99
2017-09-15T01:47:31.394Z,99.99
2017-09-15T01:48:31.394Z,99.99
2017-09-15T01:49:31.390Z,99.99
2017-09-15T01:50:31.386Z,99.99
2017-09-15T01:51:31.380Z,99.99
2017-09-15T01:52:31.372Z,99.99
2017-09-15T01:53:31.368Z,99.99
2017-09-15T01:54:31.364Z,99.99
2017-09-15T01:55:31.359Z,99.99
2017-09-15T01:56:31.360Z,99.99
2017-09-15T01:57:31.355Z,99.99
2017-09-15T01:58:31.353Z,99.99
2017-09-15T01:59:31.346Z,99.99
2017-09-15T02:00:31.341Z,99.99
2017-09-15T02:01:31.336Z,99.99
2017-09-15T02:02:31.332Z,99.99
2017-09-15T02:03:31.328Z,99.99
2017-09-15T02:04:31.320Z,99.99
2017-09-15T02:05:31.315Z,99.99
2017-09-15T02:06:31.312Z,99.99
2017-09-15T02:07:31.305Z,99.99
2017-09-15T02:08:31.302Z,99.99
2017-09-15T02:09:31.297Z,99.99
2017-09-15T02:10:31.294Z,99.99
2017-09-15T02:11:31.325Z,99.99
2017-09-15T02:12:31.287Z,99.99
2017-09-15T02:13:31.285Z,99.99
2017-09-15T02:14:31.280Z,99.99
2017-09-15T02:15:31.275Z,99.99
2017-09-15T02:16:31.270Z,99.99
2017-09-15T02:17:31.266Z,99.99
2017-09-15T02:18:31.261Z,99.99
2017-09-15T02:19:31.258Z,99.99
2017-09-15T02:20:31.248Z,99.99
2017-09-15T02:21:31.244Z,99.99
2017-09-15T02:22:31.242Z,99.99
2017-09-15T02:23:31.237Z,99.99
2017-09-15T02:24:31.230Z,99.99
2017-09-15T02:25:31.226Z,99.99
2017-09-15T02:26:31.222Z,99.99
2017-09-15T02:27:31.217Z,99.99
2017-09-15T02:28:31.217Z,99.99
2017-09-15T02:29:31.213Z,99.99
2017-09-15T02:30:31.209Z,99.99
2017-09-15T02:31:31.203Z,99.99
2017-09-15T02:32:31.200Z,99.99
2017-09-15T02:33:31.194Z,99.99
2017-09-15T02:34:31.194Z,99.99
2017-09-15T02:35:31.188Z,99.99
2017-09-15T02:36:31.176Z,99.99
2017-09-15T02:37:31.174Z,99.99
2017-09-15T02:38:31.168Z,99.99
2017-09-15T02:39:31.162Z,99.99
2017-09-15T02:40:31.159Z,99.99
2017-09-15T02:41:31.162Z,99.99
2017-09-15T02:42:31.150Z,99.99
2017-09-15T02:43:31.144Z,99.99
2017-09-15T02:44:31.145Z,99.99
2017-09-15T02:45:31.149Z,99.99
2017-09-15T02:46:31.136Z,99.99
2017-09-15T02:47:31.130Z,99.99
2017-09-15T02:48:31.125Z,99.99
2017-09-15T02:49:31.122Z,99.99
2017-09-15T02:50:31.116Z,99.99
2017-09-15T02:51:31.112Z,99.99
2017-09-15T02:52:31.104Z,99.99
2017-09-15T02:53:31.100Z,99.99
2017-09-15T02:54:31.094Z,99.99
2017-09-15T02:55:31.089Z,99.99
2017-09-15T02:56:31.089Z,99.99
2017-09-15T02:57:31.084Z,99.99
2017-09-15T02:58:31.081Z,99.99
2017-09-15T02:59:31.074Z,99.99
2017-09-15T03:00:31.067Z,99.99
2017-09-15T03:01:31.061Z,99.99
2017-09-15T03:02:31.058Z,99.99
2017-09-15T03:03:31.053Z,99.99
2017-09-15T03:04:31.049Z,99.99
2017-09-15T03:05:31.043Z,99.99
2017-09-15T03:06:31.061Z,99.99
2017-09-15T03:07:31.034Z,99.99
2017-09-15T03:08:31.034Z,99.99
2017-09-15T03:09:31.032Z,99.99
2017-09-15T03:10:31.025Z,99.99
2017-09-15T03:11:31.020Z,99.99
2017-09-15T03:12:31.017Z,99.99
2017-09-15T03:13:31.011Z,99.99
2017-09-15T03:14:31.008Z,99.99
2017-09-15T03:15:31.002Z,99.99
2017-09-15T03:16:30.994Z,99.99
2017-09-15T03:17:30.989Z,99.99
2017-09-15T03:18:30.987Z,99.99
2017-09-15T03:19:30.981Z,99.99
2017-09-15T03:20:30.976Z,99.99
2017-09-15T03:21:30.975Z,99.99
2017-09-15T03:22:30.968Z,99.99
2017-09-15T03:23:30.965Z,99.99
2017-09-15T03:24:30.964Z,99.99
2017-09-15T03:25:30.959Z,99.99
2017-09-15T03:26:30.956Z,99.99
2017-09-15T03:27:30.950Z,99.99
2017-09-15T03:28:30.947Z,99.99
2017-09-15T03:29:30.942Z,99.99
2017-09-15T03:30:30.940Z,99.99
2017-09-15T03:31:30.934Z,99.99
2017-09-15T03:32:30.925Z,99.99
2017-09-15T03:33:30.922Z,99.99
2017-09-15T03:34:30.919Z,99.99
2017-09-15T03:35:30.912Z,99.99
2017-09-15T03:36:30.909Z,99.99
2017-09-15T03:37:30.906Z,99.99
2017-09-15T03:38:30.901Z,99.99
2017-09-15T03:39:30.900Z,99.99
2017-09-15T03:40:30.897Z,99.99
2017-09-15T03:41:30.893Z,99.99
2017-09-15T03:42:30.890Z,99.99
2017-09-15T03:43:30.885Z,99.99
2017-09-15T03:44:30.880Z,99.99
2017-09-15T03:45:30.876Z,99.99
2017-09-15T03:46:30.873Z,99.99
2017-09-15T03:47:30.869Z,99.99
2017-09-15T03:48:30.860Z,99.99
2017-09-15T03:49:30.857Z,99.99
2017-09-15T03:50:30.853Z,99.99
2017-09-15T03:51:30.850Z,99.99
2017-09-15T03:52:30.844Z,99.99
2017-09-15T03:53:30.841Z,99.99
2017-09-15T03:54:30.836Z,99.99
2017-09-15T03:55:30.831Z,99.99
2017-09-15T03:56:30.833Z,99.99
2017-09-15T03:57:30.829Z,99.99
2017-09-15T03:58:30.824Z,99.99
2017-09-15T03:59:30.821Z,99.99
2017-09-15T04:00:30.812Z,99.99
2017-09-15T04:01:30.808Z,99.99
2017-09-15T04:02:30.805Z,99.99
2017-09-15T04:03:30.799Z,99.99
2017-09-15T04:04:30.799Z,99.99
2017-09-15T04:05:30.802Z,99.99
2017-09-15T04:06:30.794Z,99.99
2017-09-15T04:07:30.788Z,99.99
2017-09-15T04:08:30.784Z,99.99
2017-09-15T04:09:30.780Z,99.99
2017-09-15T04:10:30.778Z,99.99
2017-09-15T04:11:30.771Z,99.99
2017-09-15T04:12:30.763Z,99.99
2017-09-15T04:13:30.761Z,99.99
2017-09-15T04:14:30.756Z,99.99
2017-09-15T04:15:30.753Z,99.99
2017-09-15T04:16:30.748Z,99.99
2017-09-15T04:17:30.744Z,99.99
2017-09-15T04:18:30.741Z,99.99
2017-09-15T04:19:30.736Z,99.99
2017-09-15T04:20:30.737Z,99.99
2017-09-15T04:21:30.733Z,99.99
2017-09-15T04:22:30.727Z,99.99
2017-09-15T04:23:30.724Z,99.99
2017-09-15T04:24:30.720Z,99.99
2017-09-15T04:25:30.715Z,99.99
2017-09-15T04:26:30.712Z,99.99
2017-09-15T04:27:30.708Z,99.99
2017-09-15T04:28:30.699Z,99.99
2017-09-15T04:29:30.697Z,99.99
2017-09-15T04:30:30.692Z,99.99
2017-09-15T04:31:30.687Z,99.99
2017-09-15T04:32:30.685Z,99.99
2017-09-15T04:33:30.679Z,99.99
2017-09-15T04:34:30.677Z,99.99
2017-09-15T04:35:30.673Z,99.99
2017-09-15T04:36:30.673Z,99.99
2017-09-15T04:37:30.667Z,99.99
2017-09-15T04:38:30.664Z,99.99
2017-09-15T04:39:30.661Z,99.99
2017-09-15T04:40:30.657Z,99.99
2017-09-15T04:41:30.652Z,99.99
2017-09-15T04:42:30.648Z,99.99
2017-09-15T04:43:30.643Z,99.99
2017-09-15T04:44:30.635Z,99.99
2017-09-15T04:45:30.638Z,99.99
2017-09-15T04:46:30.628Z,99.99
2017-09-15T04:47:30.622Z,99.99
2017-09-15T04:48:30.618Z,99.99
2017-09-15T04:49:30.615Z,99.99
2017-09-15T04:50:30.621Z,99.99
2017-09-15T04:51:30.607Z,99.99
2017-09-15T04:52:30.607Z,99.99
2017-09-15T04:53:30.604Z,99.99
2017-09-15T04:54:30.598Z,99.99
2017-09-15T04:55:30.596Z,99.99
2017-09-15T04:56:30.592Z,99.99
2017-09-15T04:57:30.588Z,99.99
2017-09-15T04:58:30.583Z,99.99
2017-09-15T04:59:30.578Z,99.99
2017-09-15T05:00:30.570Z,99.99
2017-09-15T05:01:30.573Z,99.99
2017-09-15T05:02:30.563Z,99.99
2017-09-15T05:03:30.558Z,99.99
2017-09-15T05:04:30.554Z,99.99
2017-09-15T05:05:30.550Z,99.99
2017-09-15T05:06:30.547Z,99.99
2017-09-15T05:07:30.542Z,99.99
2017-09-15T05:08:30.542Z,99.99
2017-09-15T05:09:30.543Z,99.99
2017-09-15T05:10:30.535Z,99.99
2017-09-15T05:11:30.530Z,99.99
2017-09-15T05:12:30.527Z,99.99
2017-09-15T05:13:30.522Z,99.99
2017-09-15T05:14:30.519Z,99.99
2017-09-15T05:15:30.513Z,99.99
2017-09-15T05:16:30.506Z,99.99
2017-09-15T05:17:30.502Z,99.99
2017-09-15T05:18:30.499Z,99.99
2017-09-15T05:19:30.496Z,99.99
2017-09-15T05:20:30.489Z,99.99
2017-09-15T05:21:30.486Z,99.99
2017-09-15T05:22:30.482Z,99.99
2017-09-15T05:23:30.477Z,99.99
2017-09-15T05:24:30.477Z,99.99
2017-09-15T05:25:30.473Z,99.99
2017-09-15T05:26:30.469Z,99.99
2017-09-15T05:27:30.465Z,99.99
2017-09-15T05:28:30.460Z,99.99
2017-09-15T05:29:30.456Z,99.99
2017-09-15T05:30:30.453Z,99.99
2017-09-15T05:31:30.451Z,99.99
2017-09-15T05:32:30.442Z,99.99
2017-09-15T05:33:30.437Z,99.99
2017-09-15T05:34:30.434Z,99.99
2017-09-15T05:35:30.429Z,99.99
2017-09-15T05:36:30.429Z,99.99
2017-09-15T05:37:30.422Z,99.99
2017-09-15T05:38:30.417Z,99.99
2017-09-15T05:39:30.413Z,99.99
2017-09-15T05:40:30.413Z,99.99
2017-09-15T05:41:30.410Z,99.99
2017-09-15T05:42:30.406Z,99.99
2017-09-15T05:43:30.402Z,99.99
2017-09-15T05:44:30.398Z,99.99
2017-09-15T05:45:30.402Z,99.99
2017-09-15T05:46:30.394Z,99.99
2017-09-15T05:47:30.385Z,99.99
2017-09-15T05:48:30.379Z,99.99
2017-09-15T05:49:30.373Z,99.99
2017-09-15T05:50:30.370Z,99.99
2017-09-15T05:51:30.365Z,99.99
2017-09-15T05:52:30.363Z,99.99
2017-09-15T05:53:30.359Z,99.99
2017-09-15T05:54:30.355Z,99.99
2017-09-15T05:55:30.350Z,99.99
2017-09-15T05:56:30.351Z,99.99
2017-09-15T05:57:30.348Z,99.99
2017-09-15T05:58:30.345Z,99.99
2017-09-15T05:59:30.340Z,99.99
2017-09-15T06:00:30.337Z,99.99
2017-09-15T06:01:30.332Z,99.99
2017-09-15T06:02:30.328Z,99.99
2017-09-15T06:03:30.326Z,99.99
2017-09-15T06:04:30.318Z,99.99
2017-09-15T06:05:30.319Z,99.99
2017-09-15T06:06:30.311Z,99.99
2017-09-15T06:07:30.307Z,99.99
2017-09-15T06:08:30.307Z,99.99
2017-09-15T06:09:30.303Z,99.99
2017-09-15T06:10:30.301Z,99.99
2017-09-15T06:11:30.296Z,99.99
2017-09-15T06:12:30.290Z,99.99
2017-09-15T06:13:30.288Z,99.99
2017-09-15T06:14:30.282Z,99.99
2017-09-15T06:15:30.279Z,99.99
2017-09-15T06:16:30.275Z,99.99
2017-09-15T06:17:30.273Z,99.99
2017-09-15T06:18:30.270Z,99.99
2017-09-15T06:19:30.265Z,99.99
2017-09-15T06:20:30.266Z,99.99
2017-09-15T06:21:30.264Z,99.99
2017-09-15T06:22:30.264Z,99.99
2017-09-15T06:23:30.257Z,99.99
2017-09-15T06:24:30.253Z,99.99
2017-09-15T06:25:30.250Z,99.99
2017-09-15T06:26:30.247Z,99.99
2017-09-15T06:27:30.243Z,99.99
2017-09-15T06:28:30.236Z,99.99
2017-09-15T06:29:30.233Z,99.99
2017-09-15T06:30:30.230Z,99.99
2017-09-15T06:31:30.225Z,99.99
2017-09-15T06:32:30.221Z,99.99
2017-09-15T06:33:30.218Z,99.99
2017-09-15T06:34:30.223Z,99.99
2017-09-15T06:35:30.214Z,99.99
2017-09-15T06:36:30.214Z,99.99
2017-09-15T06:37:30.210Z,99.99
2017-09-15T06:38:30.206Z,99.99
2017-09-15T06:39:30.202Z,99.99
2017-09-15T06:40:30.198Z,99.99
2017-09-15T06:41:30.197Z,99.99
2017-09-15T06:42:30.194Z,99.99
2017-09-15T06:43:30.190Z,99.99
2017-09-15T06:44:30.182Z,99.99
2017-09-15T06:45:30.178Z,99.99
2017-09-15T06:46:30.176Z,99.99
2017-09-15T06:47:30.170Z,99.99
2017-09-15T06:48:30.168Z,99.99
2017-09-15T06:49:30.165Z,99.99
2017-09-15T06:50:30.163Z,99.99
2017-09-15T06:51:30.158Z,99.99
2017-09-15T06:52:30.159Z,99.99
2017-09-15T06:53:30.154Z,99.99
2017-09-15T06:54:30.153Z,99.99
2017-09-15T06:55:30.148Z,99.99
2017-09-15T06:56:30.144Z,99.99
2017-09-15T06:57:30.180Z,99.99
2017-09-15T06:58:30.138Z,99.99
2017-09-15T06:59:30.134Z,99.99
2017-09-15T07:00:30.126Z,99.99
2017-09-15T07:01:30.123Z,99.99
2017-09-15T07:02:30.121Z,99.99
2017-09-15T07:03:30.117Z,99.99
2017-09-15T07:04:30.113Z,99.99
2017-09-15T07:05:30.111Z,99.99
2017-09-15T07:06:30.108Z,99.99
2017-09-15T07:07:30.102Z,99.99
2017-09-15T07:08:30.106Z,99.99
2017-09-15T07:09:30.101Z,99.99
2017-09-15T07:10:30.098Z,99.99
2017-09-15T07:11:30.093Z,99.99
2017-09-15T07:12:30.087Z,99.99
2017-09-15T07:13:30.084Z,99.99
2017-09-15T07:14:30.081Z,99.99
2017-09-15T07:15:30.077Z,99.99
2017-09-15T07:16:30.080Z,99.99
2017-09-15T07:17:30.074Z,99.99
2017-09-15T07:18:30.071Z,99.99
2017-09-15T07:19:30.067Z,99.99
2017-09-15T07:20:30.068Z,99.99
2017-09-15T07:21:30.063Z,99.99
2017-09-15T07:22:30.059Z,99.99
2017-09-15T07:23:30.057Z,99.99
2017-09-15T07:24:30.058Z,99.99
2017-09-15T07:25:30.046Z,99.99
2017-09-15T07:26:30.042Z,99.99
2017-09-15T07:27:30.038Z,99.99
2017-09-15T07:28:30.036Z,99.99
2017-09-15T07:29:30.036Z,99.99
2017-09-15T07:30:30.031Z,99.99
2017-09-15T07:31:30.026Z,99.99
2017-09-15T07:32:30.026Z,99.99
2017-09-15T07:33:30.022Z,99.99
2017-09-15T07:34:30.020Z,99.99
2017-09-15T07:35:30.016Z,99.99
2017-09-15T07:36:30.014Z,99.99
2017-09-15T07:37:30.010Z,99.99
2017-09-15T07:38:30.010Z,99.99
2017-09-15T07:39:30.009Z,99.99
2017-09-15T07:40:29.997Z,99.99
2017-09-15T07:41:29.995Z,99.99
2017-09-15T07:42:29.991Z,99.99
2017-09-15T07:43:29.989Z,99.99
2017-09-15T07:44:29.986Z,99.99
2017-09-15T07:45:29.982Z,99.99
2017-09-15T07:46:29.980Z,99.99
2017-09-15T07:47:29.976Z,99.99
2017-09-15T07:48:29.978Z,99.99
2017-09-15T07:49:29.977Z,99.99
2017-09-15T07:50:29.973Z,99.99
2017-09-15T07:51:29.971Z,99.99
2017-09-15T07:52:29.967Z,99.99
2017-09-15T07:53:29.965Z,99.99
2017-09-15T07:54:29.962Z,99.99
2017-09-15T07:55:29.959Z,99.99
2017-09-15T07:56:29.952Z,99.99
2017-09-15T07:57:29.950Z,99.99
2017-09-15T07:58:29.946Z,99.99
2017-09-15T07:59:29.944Z,99.99
2017-09-15T08:00:29.941Z,99.99
2017-09-15T08:01:29.938Z,99.99
2017-09-15T08:02:29.936Z,99.99
2017-09-15T08:03:29.932Z,99.99
2017-09-15T08:04:29.933Z,99.99
2017-09-15T08:05:29.932Z,99.99
2017-09-15T08:06:29.929Z,99.99
2017-09-15T08:07:29.926Z,99.99
2017-09-15T08:08:29.924Z,99.99
2017-09-15T08:09:29.921Z,99.99
2017-09-15T08:10:29.918Z,99.99
2017-09-15T08:11:29.916Z,99.99
2017-09-15T08:12:29.908Z,99.99
2017-09-15T08:13:29.906Z,99.99
2017-09-15T08:14:29.904Z,99.99
2017-09-15T08:15:29.899Z,99.99
2017-09-15T08:16:29.901Z,99.99
2017-09-15T08:17:29.900Z,99.99
2017-09-15T08:18:29.895Z,99.99
2017-09-15T08:19:29.893Z,99.99
2017-09-15T08:20:29.886Z,99.99
2017-09-15T08:21:29.885Z,99.67
2017-09-15T08:22:29.882Z,98.61
2017-09-15T08:23:29.880Z,97.08
2017-09-15T08:24:29.877Z,96.80
2017-09-15T08:25:29.876Z,96.22
2017-09-15T08:26:29.873Z,96.37
2017-09-15T08:27:29.871Z,96.42
2017-09-15T08:28:29.874Z,97.09
2017-09-15T08:29:29.872Z,96.27
2017-09-15T08:30:29.871Z,95.12
2017-09-15T08:31:29.868Z,94.40
2017-09-15T08:32:29.872Z,93.64
2017-09-15T08:33:29.866Z,93.93
2017-09-15T08:34:29.868Z,93.54
2017-09-15T08:35:29.941Z,93.69
2017-09-15T08:36:29.871Z,94.12
2017-09-15T08:37:29.857Z,93.79
2017-09-15T08:38:29.906Z,93.69
2017-09-15T08:39:29.886Z,94.31
2017-09-15T08:40:29.853Z,94.31
2017-09-15T08:41:29.852Z,94.21
2017-09-15T08:42:29.852Z,94.31
2017-09-15T08:43:29.853Z,93.83
2017-09-15T08:44:29.853Z,93.30
2017-09-15T08:45:29.853Z,93.64
2017-09-15T08:46:29.853Z,94.40
2017-09-15T08:47:29.852Z,94.89
2017-09-15T08:48:29.853Z,94.74
2017-09-15T08:49:29.848Z,94.55
2017-09-15T08:50:29.849Z,95.03
2017-09-15T08:51:29.847Z,95.22
2017-09-15T08:52:29.842Z,95.98
2017-09-15T08:53:29.841Z,96.37
2017-09-15T08:54:29.841Z,96.08
2017-09-15T08:55:29.839Z,96.18
2017-09-15T08:56:29.838Z,96.37
2017-09-15T08:57:29.837Z,96.75
2017-09-15T08:58:29.836Z,97.18
2017-09-15T08:59:29.835Z,96.80
2017-09-15T09:00:29.839Z,95.56
2017-09-15T09:01:29.837Z,95.07
2017-09-15T09:02:29.838Z,94.60
2017-09-15T09:03:29.835Z,95.27
2017-09-15T09:04:29.834Z,94.26
2017-09-15T09:05:29.834Z,93.98
2017-09-15T09:06:29.832Z,93.30
2017-09-15T09:07:29.834Z,93.02
2017-09-15T09:08:29.827Z,92.44
2017-09-15T09:09:29.831Z,92.54
2017-09-15T09:10:29.827Z,92.54
2017-09-15T09:11:29.825Z,93.02
2017-09-15T09:12:29.824Z,93.49
2017-09-15T09:13:29.824Z,93.49
2017-09-15T09:14:29.825Z,93.40
2017-09-15T09:15:29.823Z,93.54
2017-09-15T09:16:29.826Z,93.74
2017-09-15T09:17:29.826Z,93.93
2017-09-15T09:18:29.826Z,94.69
2017-09-15T09:19:29.823Z,94.79
2017-09-15T09:20:29.820Z,94.98
2017-09-15T09:21:29.821Z,95.46
2017-09-15T09:22:29.820Z,95.41
2017-09-15T09:23:29.818Z,95.46
2017-09-15T09:24:29.822Z,96.03
2017-09-15T09:25:29.820Z,95.65
2017-09-15T09:26:29.822Z,95.36
2017-09-15T09:27:29.820Z,95.31
2017-09-15T09:28:29.819Z,95.17
2017-09-15T09:29:29.818Z,95.70
2017-09-15T09:30:29.822Z,96.42
2017-09-15T09:31:29.816Z,95.46
2017-09-15T09:32:29.817Z,95.75
2017-09-15T09:33:29.815Z,96.03
2017-09-15T09:34:29.811Z,96.61
2017-09-15T09:35:29.810Z,95.98
2017-09-15T09:36:29.808Z,95.46
2017-09-15T09:37:29.808Z,94.93
2017-09-15T09:38:29.835Z,94.45
2017-09-15T09:39:29.806Z,94.31
2017-09-15T09:40:29.809Z,94.12
2017-09-15T09:41:29.813Z,93.01
2017-09-15T09:42:29.810Z,92.10
2017-09-15T09:43:29.809Z,91.81
2017-09-15T09:44:29.809Z,91.14
2017-09-15T09:45:29.812Z,90.37
2017-09-15T09:46:29.811Z,90.08
2017-09-15T09:47:29.809Z,89.12
2017-09-15T09:48:29.807Z,88.31
2017-09-15T09:49:29.814Z,86.33
2017-09-15T09:50:29.806Z,85.71
2017-09-15T09:51:29.808Z,84.63
2017-09-15T09:52:29.809Z,82.32
2017-09-15T09:53:29.811Z,81.46
2017-09-15T09:54:29.812Z,79.25
2017-09-15T09:55:29.814Z,74.77
2017-09-15T09:56:29.821Z,70.10
2017-09-15T09:57:29.824Z,69.78
2017-09-15T09:58:29.826Z,70.06
2017-09-15T09:59:29.830Z,68.24
2017-09-15T10:00:29.837Z,64.56
2017-09-15T10:01:29.839Z,60.74
2017-09-15T10:02:29.844Z,59.00
2017-09-15T10:03:29.848Z,60.04
2017-09-15T10:04:29.850Z,60.17
2017-09-15T10:05:29.856Z,61.11
2017-09-15T10:06:29.861Z,61.30
2017-09-15T10:07:29.870Z,60.18
2017-09-15T10:08:29.873Z,62.05
2017-09-15T10:09:29.880Z,63.50
2017-09-15T10:10:29.886Z,63.24
2017-09-15T10:11:29.892Z,62.59
2017-09-15T10:12:29.903Z,60.03
2017-09-15T10:13:29.911Z,55.85
2017-09-15T10:14:29.917Z,53.35
2017-09-15T10:15:29.921Z,53.17
2017-09-15T10:16:29.928Z,54.05
2017-09-15T10:17:29.936Z,58.29
2017-09-15T10:18:29.944Z,59.45
2017-09-15T10:19:29.951Z,60.61
2017-09-15T10:20:29.955Z,61.44
2017-09-15T10:21:29.961Z,64.15
2017-09-15T10:22:29.968Z,65.40
2017-09-15T10:23:29.994Z,65.01
2017-09-15T10:24:29.986Z,64.43
2017-09-15T10:25:29.995Z,64.37
2017-09-15T10:26:30.002Z,63.67
2017-09-15T10:27:30.008Z,64.43
2017-09-15T10:28:30.012Z,64.34
2017-09-15T10:29:30.018Z,64.89
2017-09-15T10:30:30.025Z,65.56
2017-09-15T10:31:30.030Z,65.24
2017-09-15T10:32:30.036Z,66.49
2017-09-15T10:33:30.043Z,66.94
2017-09-15T10:34:30.050Z,67.49
2017-09-15T10:35:30.054Z,68.35
2017-09-15T10:36:30.064Z,69.22
2017-09-15T10:37:30.068Z,69.51
2017-09-15T10:38:30.075Z,70.92
2017-09-15T10:39:30.088Z,71.88
2017-09-15T10:40:30.088Z,71.30
2017-09-15T10:41:30.089Z,71.49
2017-09-15T10:42:30.093Z,70.88
2017-09-15T10:43:30.096Z,71.49
2017-09-15T10:44:30.096Z,72.36
2017-09-15T10:45:30.101Z,71.49
2017-09-15T10:46:30.104Z,71.97
2017-09-15T10:47:30.107Z,72.45
2017-09-15T10:48:30.110Z,73.13
2017-09-15T10:49:30.114Z,73.46
2017-09-15T10:50:30.119Z,72.97
2017-09-15T10:51:30.120Z,71.88
2017-09-15T10:52:30.127Z,72.45
2017-09-15T10:53:30.133Z,72.13
2017-09-15T10:54:30.133Z,72.80
2017-09-15T10:55:30.136Z,72.45
2017-09-15T10:56:30.139Z,73.51
2017-09-15T10:57:30.142Z,73.77
2017-09-15T10:58:30.145Z,74.09
2017-09-15T10:59:30.148Z,74.25
2017-09-15T11:00:30.146Z,74.67
2017-09-15T11:01:30.149Z,74.82
2017-09-15T11:02:30.153Z,74.73
2017-09-15T11:03:30.155Z,73.96
2017-09-15T11:04:30.157Z,74.98
2017-09-15T11:05:30.160Z,76.29
2017-09-15T11:06:30.164Z,78.55
2017-09-15T11:07:30.164Z,79.90
2017-09-15T11:08:30.172Z,79.28
2017-09-15T11:09:30.174Z,80.97
2017-09-15T11:10:30.175Z,82.65
2017-09-15T11:11:30.178Z,85.15
2017-09-15T11:12:30.180Z,86.01
2017-09-15T11:13:30.184Z,84.05
2017-09-15T11:14:30.183Z,84.34
2017-09-15T11:15:30.183Z,84.63
2017-09-15T11:16:30.182Z,84.53
2017-09-15T11:17:30.183Z,84.44
2017-09-15T11:18:30.185Z,85.16
2017-09-15T11:19:30.183Z,86.60
2017-09-15T11:20:30.185Z,89.18
2017-09-15T11:21:30.186Z,89.52
2017-09-15T11:22:30.187Z,92.63
2017-09-15T11:23:30.187Z,94.26
2017-09-15T11:24:30.192Z,94.31
2017-09-15T11:25:30.192Z,94.60
2017-09-15T11:26:30.199Z,93.64
2017-09-15T11:27:30.192Z,95.75
2017-09-15T11:28:30.188Z,95.75
2017-09-15T11:29:30.187Z,94.12
2017-09-15T11:30:30.196Z,94.02
2017-09-15T11:31:30.185Z,92.49
2017-09-15T11:32:30.190Z,93.16
2017-09-15T11:33:30.193Z,93.26
2017-09-15T11:34:30.190Z,93.83
2017-09-15T11:35:30.188Z,92.78
2017-09-15T11:36:30.189Z,93.74
2017-09-15T11:37:30.187Z,94.12
2017-09-15T11:38:30.188Z,94.12
2017-09-15T11:39:30.187Z,93.64
2017-09-15T11:40:30.182Z,92.58
2017-09-15T11:41:30.186Z,93.83
2017-09-15T11:42:30.181Z,93.35
2017-09-15T11:43:30.180Z,93.98
2017-09-15T11:44:30.180Z,94.07
2017-09-15T11:45:30.180Z,93.88
2017-09-15T11:46:30.178Z,93.69
2017-09-15T11:47:30.176Z,92.54
2017-09-15T11:48:30.181Z,91.67
2017-09-15T11:49:30.179Z,91.86
2017-09-15T11:50:30.180Z,91.77
2017-09-15T11:51:30.178Z,90.72
2017-09-15T11:52:30.179Z,89.95
2017-09-15T11:53:30.178Z,89.66
2017-09-15T11:54:30.177Z,88.90
2017-09-15T11:55:30.176Z,89.32
2017-09-15T11:56:30.170Z,88.17
2017-09-15T11:57:30.170Z,88.02
2017-09-15T11:58:30.170Z,88.60
2017-09-15T11:59:30.169Z,88.55
2017-09-15T12:00:30.169Z,90.28
2017-09-15T12:01:30.168Z,91.14
2017-09-15T12:02:30.170Z,91.05
2017-09-15T12:03:30.169Z,90.22
2017-09-15T12:04:30.172Z,89.84
2017-09-15T12:05:30.171Z,89.07
2017-09-15T12:06:30.172Z,89.26
2017-09-15T12:07:30.172Z,88.11
2017-09-15T12:08:30.172Z,88.16
2017-09-15T12:09:30.173Z,87.05
2017-09-15T12:10:30.172Z,87.39
2017-09-15T12:11:30.173Z,86.14
2017-09-15T12:12:30.169Z,85.52
2017-09-15T12:13:30.171Z,84.37
2017-09-15T12:14:30.171Z,84.51
2017-09-15T12:15:30.172Z,84.75
2017-09-15T12:16:30.172Z,84.89
2017-09-15T12:17:30.173Z,84.89
2017-09-15T12:18:30.174Z,83.45
2017-09-15T12:19:30.174Z,83.54
2017-09-15T12:20:30.179Z,83.26
2017-09-15T12:21:30.180Z,82.87
2017-09-15T12:22:30.181Z,82.87
2017-09-15T12:23:30.182Z,82.59
2017-09-15T12:24:30.183Z,82.97
2017-09-15T12:25:30.183Z,81.43
2017-09-15T12:26:30.185Z,81.24
2017-09-15T12:27:30.186Z,81.92
2017-09-15T12:28:30.182Z,82.40
2017-09-15T12:29:30.185Z,82.10
2017-09-15T12:30:30.185Z,82.53
2017-09-15T12:31:30.186Z,82.76
2017-09-15T12:32:30.191Z,83.53
2017-09-15T12:33:30.194Z,83.19
2017-09-15T12:34:30.196Z,83.09
2017-09-15T12:35:30.196Z,82.32
2017-09-15T12:36:30.193Z,82.67
2017-09-15T12:37:30.197Z,79.79
2017-09-15T12:38:30.198Z,80.40
2017-09-15T12:39:30.199Z,80.07
2017-09-15T12:40:30.201Z,80.07
2017-09-15T12:41:30.204Z,79.30
2017-09-15T12:42:30.207Z,79.30
2017-09-15T12:43:30.212Z,79.21
2017-09-15T12:44:30.213Z,79.21
2017-09-15T12:45:30.215Z,78.88
2017-09-15T12:46:30.217Z,77.73
2017-09-15T12:47:30.219Z,78.50
2017-09-15T12:48:30.220Z,77.88
2017-09-15T12:49:30.223Z,78.55
2017-09-15T12:50:30.224Z,78.84
2017-09-15T12:51:30.225Z,79.27
2017-09-15T12:52:30.224Z,79.07